createdAt,value
2018-05-09T00:02:15.505Z,100378
2018-05-09T00:04:43.634Z,100376
2018-05-09T00:07:11.772Z,100377
2018-05-09T00:09:39.918Z,100380
2018-05-09T00:12:08.054Z,100371
2018-05-09T00:14:36.957Z,100375
2018-05-09T00:17:05.111Z,100369
2018-05-09T00:19:33.244Z,100372
2018-05-09T00:22:01.399Z,100369
2018-05-09T00:24:29.527Z,100367
2018-05-09T00:26:58.440Z,100365
2018-05-09T00:29:26.579Z,100363
2018-05-09T00:31:54.710Z,100355
2018-05-09T00:34:22.853Z,100359
2018-05-09T00:36:50.973Z,100361
2018-05-09T00:39:19.102Z,100362
2018-05-09T00:41:47.356Z,100366
2018-05-09T00:44:15.449Z,100362
2018-05-09T00:46:43.580Z,100367
2018-05-09T00:49:11.734Z,100362
2018-05-09T00:51:39.864Z,100352
2018-05-09T00:54:25.751Z,100362
2018-05-09T00:56:53.916Z,100363
2018-05-09T00:59:22.832Z,100356
2018-05-09T01:01:50.964Z,100356
2018-05-09T01:04:19.889Z,100361
2018-05-09T01:06:48.021Z,100357
2018-05-09T01:09:16.940Z,100363
2018-05-09T01:11:45.097Z,100356
2018-05-09T01:14:14.963Z,100357
2018-05-09T01:16:43.200Z,100350
2018-05-09T01:19:11.330Z,100354
2018-05-09T01:21:39.454Z,100350
2018-05-09T01:24:07.581Z,100354
2018-05-09T01:26:35.706Z,100355
2018-05-09T01:29:03.841Z,100361
2018-05-09T01:31:32.742Z,100354
2018-05-09T01:34:01.640Z,100345
2018-05-09T01:36:30.970Z,100343
2018-05-09T01:39:02.338Z,100349
2018-05-09T01:41:30.472Z,100340
2018-05-09T01:43:58.615Z,100337
2018-05-09T01:52:05.646Z,100338
2018-05-09T01:54:33.789Z,100332
2018-05-09T01:57:01.920Z,100339
2018-05-09T01:59:30.070Z,100326
2018-05-09T02:01:58.197Z,100325
2018-05-09T02:04:26.351Z,100326
2018-05-09T02:06:54.497Z,100318
2018-05-09T02:12:30.780Z,100322
2018-05-09T02:14:59.020Z,100317
2018-05-09T02:17:27.120Z,100316
2018-05-09T02:19:55.254Z,100314
2018-05-09T02:22:23.376Z,100319
2018-05-09T02:24:51.536Z,100318
2018-05-09T02:27:19.655Z,100320
2018-05-09T02:29:47.810Z,100322
2018-05-09T02:32:15.927Z,100321
2018-05-09T02:34:44.846Z,100319
2018-05-09T02:37:13.011Z,100317
2018-05-09T02:39:41.169Z,100317
2018-05-09T02:42:09.289Z,100318
2018-05-09T02:44:37.440Z,100316
2018-05-09T02:47:05.595Z,100314
2018-05-09T02:49:33.761Z,100311
2018-05-09T02:52:01.923Z,100319
2018-05-09T02:54:30.057Z,100319
2018-05-09T02:56:58.206Z,100319
2018-05-09T02:59:26.357Z,100314
2018-05-09T03:01:54.497Z,100314
2018-05-09T03:04:22.624Z,100317
2018-05-09T03:06:50.747Z,100317
2018-05-09T03:09:19.649Z,100317
2018-05-09T03:11:48.551Z,100316
2018-05-09T03:14:16.707Z,100319
2018-05-09T03:16:45.627Z,100332
2018-05-09T03:19:13.973Z,100325
2018-05-09T03:21:42.876Z,100332
2018-05-09T03:24:11.035Z,100324
2018-05-09T03:26:39.975Z,100335
2018-05-09T03:29:08.114Z,100335
2018-05-09T03:31:36.247Z,100335
2018-05-09T03:34:04.402Z,100331
2018-05-09T03:36:32.543Z,100336
2018-05-09T03:39:00.716Z,100337
2018-05-09T03:41:28.838Z,100332
2018-05-09T03:43:56.983Z,100332
2018-05-09T03:46:25.161Z,100337
2018-05-09T03:48:53.282Z,100324
2018-05-09T03:51:22.215Z,100324
2018-05-09T03:53:50.374Z,100312
2018-05-09T03:56:18.506Z,100325
2018-05-09T03:58:47.414Z,100321
2018-05-09T04:01:16.305Z,100321
2018-05-09T04:07:16.277Z,100325
2018-05-09T04:10:01.036Z,100333
2018-05-09T04:12:29.178Z,100332
2018-05-09T04:14:57.397Z,100332
2018-05-09T04:17:26.244Z,100336
2018-05-09T04:19:54.393Z,100334
2018-05-09T04:22:22.521Z,100339
2018-05-09T04:24:50.684Z,100335
2018-05-09T04:27:18.828Z,100339
2018-05-09T04:29:47.733Z,100333
2018-05-09T04:32:15.880Z,100334
2018-05-09T04:34:44.794Z,100335
2018-05-09T04:37:12.937Z,100325
2018-05-09T04:39:41.879Z,100330
2018-05-09T04:42:10.040Z,100326
2018-05-09T04:44:38.171Z,100340
2018-05-09T04:47:07.079Z,100317
2018-05-09T04:49:35.981Z,100332
2018-05-09T04:52:04.146Z,100332
2018-05-09T04:54:32.273Z,100334
2018-05-09T04:57:00.415Z,100321
2018-05-09T04:59:28.574Z,100335
2018-05-09T05:01:56.745Z,100323
2018-05-09T05:04:24.930Z,100323
2018-05-09T05:06:53.108Z,100333
2018-05-09T05:09:21.267Z,100341
2018-05-09T05:11:49.413Z,100335
2018-05-09T05:14:18.292Z,100335
2018-05-09T05:16:47.206Z,100339
2018-05-09T05:19:15.346Z,100338
2018-05-09T05:21:43.498Z,100335
2018-05-09T05:24:11.642Z,100335
2018-05-09T05:26:39.795Z,100338
2018-05-09T05:29:08.038Z,100331
2018-05-09T05:31:36.183Z,100335
2018-05-09T05:34:04.327Z,100338
2018-05-09T05:36:32.482Z,100346
2018-05-09T05:39:00.639Z,100336
2018-05-09T05:41:29.573Z,100335
2018-05-09T05:43:57.698Z,100331
2018-05-09T05:46:25.847Z,100338
2018-05-09T05:48:53.973Z,100333
2018-05-09T05:51:22.132Z,100339
2018-05-09T05:53:51.015Z,100333
2018-05-09T05:56:19.934Z,100339
2018-05-09T05:58:48.078Z,100331
2018-05-09T06:01:16.981Z,100341
2018-05-09T06:03:45.133Z,100347
2018-05-09T06:06:14.050Z,100348
2018-05-09T06:08:42.263Z,100347
2018-05-09T06:11:10.401Z,100352
2018-05-09T06:13:38.594Z,100350
2018-05-09T06:16:06.849Z,100346
2018-05-09T06:18:35.082Z,100347
2018-05-09T06:21:03.234Z,100340
2018-05-09T06:23:31.419Z,100342
2018-05-09T06:25:59.590Z,100348
2018-05-09T06:28:27.801Z,100342
2018-05-09T06:30:56.006Z,100339
2018-05-09T06:33:24.159Z,100338
2018-05-09T06:35:52.302Z,100338
2018-05-09T06:38:21.209Z,100339
2018-05-09T06:40:49.355Z,100344
2018-05-09T06:43:17.623Z,100338
2018-05-09T06:45:46.078Z,100342
2018-05-09T06:48:14.224Z,100342
2018-05-09T06:50:42.390Z,100352
2018-05-09T06:53:10.556Z,100346
2018-05-09T06:55:38.697Z,100349
2018-05-09T06:58:06.853Z,100355
2018-05-09T07:00:34.978Z,100356
2018-05-09T07:03:03.114Z,100355
2018-05-09T07:05:31.264Z,100367
2018-05-09T07:07:59.432Z,100360
2018-05-09T07:10:27.563Z,100362
2018-05-09T07:12:55.717Z,100364
2018-05-09T07:15:23.983Z,100354
2018-05-09T07:17:52.137Z,100348
2018-05-09T07:20:20.432Z,100354
2018-05-09T07:22:48.715Z,100354
2018-05-09T07:25:16.892Z,100351
2018-05-09T07:27:45.062Z,100352
2018-05-09T07:30:14.094Z,100351
2018-05-09T07:32:42.182Z,100344
2018-05-09T07:35:10.375Z,100335
2018-05-09T07:37:38.514Z,100339
2018-05-09T07:40:06.678Z,100341
2018-05-09T07:42:34.819Z,100335
2018-05-09T07:45:03.006Z,100335
2018-05-09T07:47:31.910Z,100341
2018-05-09T07:50:00.047Z,100341
2018-05-09T07:52:28.217Z,100344
2018-05-09T07:54:56.394Z,100342
2018-05-09T07:57:24.586Z,100348
2018-05-09T07:59:52.754Z,100350
2018-05-09T08:02:22.647Z,100343
2018-05-09T08:04:50.794Z,100347
2018-05-09T08:07:18.968Z,100339
2018-05-09T08:09:47.127Z,100337
2018-05-09T08:12:15.278Z,100332
2018-05-09T08:14:43.419Z,100335
2018-05-09T08:17:12.347Z,100337
2018-05-09T08:19:40.476Z,100335
2018-05-09T08:22:09.438Z,100336
2018-05-09T08:24:37.586Z,100334
2018-05-09T08:27:05.722Z,100334
2018-05-09T08:29:33.893Z,100333
2018-05-09T08:32:02.787Z,100337
2018-05-09T08:34:31.868Z,100344
2018-05-09T08:37:00.037Z,100337
2018-05-09T08:39:29.077Z,100347
2018-05-09T08:41:57.567Z,100338
2018-05-09T08:44:25.814Z,100339
2018-05-09T08:46:53.956Z,100336
2018-05-09T08:49:22.157Z,100338
2018-05-09T08:51:50.299Z,100339
2018-05-09T08:54:18.433Z,100335
2018-05-09T08:56:46.561Z,100325
2018-05-09T08:59:15.461Z,100332
2018-05-09T09:01:43.620Z,100322
2018-05-09T09:04:11.785Z,100331
2018-05-09T09:06:39.926Z,100331
2018-05-09T09:09:08.645Z,100325
2018-05-09T09:11:36.801Z,100316
2018-05-09T09:14:04.938Z,100312
2018-05-09T09:16:33.476Z,100314
2018-05-09T09:19:01.637Z,100309
2018-05-09T09:21:29.768Z,100307
2018-05-09T09:23:57.933Z,100303
2018-05-09T09:26:26.070Z,100298
2018-05-09T09:28:55.001Z,100299
2018-05-09T09:31:23.134Z,100304
2018-05-09T09:33:52.053Z,100299
2018-05-09T09:36:20.186Z,100292
2018-05-09T09:38:48.325Z,100297
2018-05-09T09:41:16.474Z,100288
2018-05-09T09:43:44.854Z,100294
2018-05-09T09:46:13.031Z,100300
2018-05-09T09:48:41.162Z,100290
2018-05-09T09:51:10.199Z,100286
2018-05-09T09:53:38.468Z,100286
2018-05-09T09:56:06.599Z,100284
2018-05-09T09:58:35.561Z,100288
2018-05-09T10:01:03.762Z,100279
2018-05-09T10:03:31.923Z,100281
2018-05-09T10:06:00.054Z,100274
2018-05-09T10:08:28.206Z,100286
2018-05-09T10:10:56.351Z,100271
2018-05-09T10:13:24.485Z,100278
2018-05-09T10:15:52.727Z,100283
2018-05-09T10:18:21.620Z,100267
2018-05-09T10:20:49.781Z,100263
2018-05-09T10:23:18.019Z,100267
2018-05-09T10:25:46.146Z,100269
2018-05-09T10:28:14.435Z,100266
2018-05-09T10:30:42.605Z,100267
2018-05-09T10:33:10.775Z,100271
2018-05-09T10:35:38.925Z,100259
2018-05-09T10:38:07.053Z,100258
2018-05-09T10:40:35.212Z,100251
2018-05-09T10:43:03.418Z,100254
2018-05-09T10:45:31.567Z,100256
2018-05-09T10:47:59.722Z,100249
2018-05-09T10:50:27.922Z,100244
2018-05-09T10:52:56.060Z,100248
2018-05-09T10:55:24.224Z,100268
2018-05-09T10:57:52.407Z,100240
2018-05-09T11:00:20.556Z,100251
2018-05-09T11:02:48.709Z,100245
2018-05-09T11:05:17.646Z,100238
2018-05-09T11:07:45.773Z,100243
2018-05-09T11:10:14.692Z,100248
2018-05-09T11:12:42.820Z,100243
2018-05-09T11:15:10.973Z,100244
2018-05-09T11:17:39.173Z,100246
2018-05-09T11:20:07.228Z,100243
2018-05-09T11:22:35.409Z,100238
2018-05-09T11:25:03.525Z,100234
2018-05-09T11:27:31.652Z,100228
2018-05-09T11:30:00.081Z,100232
2018-05-09T11:32:28.244Z,100229
2018-05-09T11:34:56.502Z,100226
2018-05-09T11:37:24.676Z,100231
2018-05-09T11:39:52.825Z,100231
2018-05-09T11:42:21.063Z,100225
2018-05-09T11:44:49.165Z,100220
2018-05-09T11:47:17.293Z,100214
2018-05-09T11:49:45.453Z,100210
2018-05-09T11:52:13.590Z,100203
2018-05-09T11:54:42.494Z,100208
2018-05-09T11:57:12.349Z,100208
2018-05-09T11:59:40.498Z,100214
2018-05-09T12:02:08.690Z,100205
2018-05-09T12:04:36.843Z,100201
2018-05-09T12:07:05.050Z,100202
2018-05-09T12:09:33.181Z,100201
2018-05-09T12:12:01.376Z,100197
2018-05-09T12:14:30.274Z,100196
2018-05-09T12:16:58.409Z,100191
2018-05-09T12:19:27.362Z,100193
2018-05-09T12:21:55.526Z,100188
2018-05-09T12:24:23.664Z,100188
2018-05-09T12:26:51.795Z,100179
2018-05-09T12:29:20.785Z,100186
2018-05-09T12:31:48.975Z,100182
2018-05-09T12:34:18.700Z,100181
2018-05-09T12:36:47.721Z,100171
2018-05-09T12:39:15.863Z,100172
2018-05-09T12:41:43.997Z,100171
2018-05-09T12:44:12.145Z,100170
2018-05-09T12:46:40.528Z,100162
2018-05-09T12:49:08.727Z,100157
2018-05-09T12:51:36.872Z,100155
2018-05-09T12:54:05.189Z,100151
2018-05-09T12:56:33.333Z,100159
2018-05-09T12:59:01.573Z,100152
2018-05-09T13:01:29.700Z,100154
2018-05-09T13:03:57.864Z,100152
2018-05-09T13:06:25.993Z,100150
2018-05-09T13:08:54.122Z,100147
2018-05-09T13:11:22.289Z,100146
2018-05-09T13:13:50.681Z,100142
2018-05-09T13:16:19.590Z,100134
2018-05-09T13:18:47.750Z,100131
2018-05-09T13:21:16.035Z,100132
2018-05-09T13:23:44.299Z,100132
2018-05-09T13:26:12.456Z,100128
2018-05-09T13:28:40.610Z,100128
2018-05-09T13:31:08.749Z,100113
2018-05-09T13:33:36.910Z,100118
2018-05-09T13:36:05.038Z,100112
2018-05-09T13:38:33.187Z,100108
2018-05-09T13:41:01.317Z,100098
2018-05-09T13:43:29.566Z,100093
2018-05-09T13:45:58.501Z,100097
2018-05-09T13:48:26.674Z,100093
2018-05-09T13:50:55.003Z,100093
2018-05-09T13:53:23.138Z,100088
2018-05-09T13:55:51.458Z,100092
2018-05-09T13:58:19.833Z,100067
2018-05-09T14:00:48.079Z,100081
2018-05-09T14:03:16.232Z,100069
2018-05-09T14:05:44.371Z,100076
2018-05-09T14:08:12.533Z,100075
2018-05-09T14:10:41.435Z,100073
2018-05-09T14:13:09.652Z,100070
2018-05-09T14:15:37.839Z,100063
2018-05-09T14:18:05.991Z,100063
2018-05-09T14:20:34.127Z,100058
2018-05-09T14:23:03.043Z,100059
2018-05-09T14:25:31.191Z,100057
2018-05-09T14:27:59.386Z,100056
2018-05-09T14:30:27.538Z,100054
2018-05-09T14:32:55.691Z,100046
2018-05-09T14:35:23.857Z,100047
2018-05-09T14:37:52.073Z,100042
2018-05-09T14:40:20.238Z,100037
2018-05-09T14:42:48.366Z,100036
2018-05-09T14:45:16.503Z,100036
2018-05-09T14:47:44.711Z,100032
2018-05-09T14:50:12.855Z,100028
2018-05-09T14:52:41.023Z,100031
2018-05-09T14:55:09.204Z,100034
2018-05-09T14:57:37.384Z,100031
2018-05-09T15:00:05.540Z,100025
2018-05-09T15:02:33.716Z,100030
2018-05-09T15:05:01.886Z,100021
2018-05-09T15:07:30.167Z,100025
2018-05-09T15:09:58.348Z,100018
2018-05-09T15:12:26.482Z,100018
2018-05-09T15:14:54.652Z,100012
2018-05-09T15:17:22.822Z,100009
2018-05-09T15:19:51.290Z,100002
2018-05-09T15:22:20.205Z,100011
2018-05-09T15:24:48.355Z,100012
2018-05-09T15:27:16.492Z,100006
2018-05-09T15:29:44.636Z,100011
2018-05-09T15:32:12.766Z,99994
2018-05-09T15:34:41.666Z,100000
2018-05-09T15:37:10.591Z,100007
2018-05-09T15:39:38.715Z,99996
2018-05-09T15:42:07.649Z,99990
2018-05-09T15:44:36.057Z,99990
2018-05-09T15:47:05.002Z,100002
2018-05-09T15:49:33.125Z,99993
2018-05-09T15:52:01.273Z,99994
2018-05-09T15:54:29.384Z,99983
2018-05-09T15:56:57.521Z,99981
2018-05-09T15:59:25.673Z,99981
2018-05-09T16:01:53.831Z,99982
2018-05-09T16:04:21.956Z,99982
2018-05-09T16:06:50.127Z,99975
2018-05-09T16:09:18.255Z,99983
2018-05-09T16:11:46.458Z,99976
2018-05-09T16:14:14.653Z,99980
2018-05-09T16:16:42.948Z,99980
2018-05-09T16:19:11.909Z,99973
2018-05-09T16:21:40.056Z,99972
2018-05-09T16:24:08.192Z,99975
2018-05-09T16:26:37.088Z,99970
2018-05-09T16:29:06.003Z,99970
2018-05-09T16:31:34.148Z,99971
2018-05-09T16:34:03.075Z,99970
2018-05-09T16:36:31.203Z,99968
2018-05-09T16:38:59.412Z,99966
2018-05-09T16:41:27.536Z,99966
2018-05-09T16:43:55.702Z,99964
2018-05-09T16:46:23.912Z,99962
2018-05-09T16:48:52.083Z,99963
2018-05-09T16:51:20.326Z,99962
2018-05-09T16:53:48.514Z,99962
2018-05-09T16:56:17.423Z,99959
2018-05-09T16:58:45.598Z,99960
2018-05-09T17:01:13.795Z,99968
2018-05-09T17:03:41.981Z,99962
2018-05-09T17:06:10.160Z,99965
2018-05-09T17:08:38.321Z,99961
2018-05-09T17:11:06.438Z,99951
2018-05-09T17:13:35.353Z,99957
2018-05-09T17:16:03.522Z,99957
2018-05-09T17:18:31.660Z,99958
2018-05-09T17:20:59.814Z,99953
2018-05-09T17:23:27.971Z,99957
2018-05-09T17:25:56.141Z,99958
2018-05-09T17:28:24.315Z,99954
2018-05-09T17:30:52.453Z,99949
2018-05-09T17:33:21.394Z,99953
2018-05-09T17:35:49.769Z,99950
2018-05-09T17:38:17.984Z,99949
2018-05-09T17:40:46.866Z,99951
2018-05-09T17:43:15.023Z,99952
2018-05-09T17:45:43.193Z,99949
2018-05-09T17:48:11.357Z,99946
2018-05-09T17:50:39.518Z,99945
2018-05-09T17:53:09.209Z,99950
2018-05-09T17:55:37.349Z,99943
2018-05-09T17:58:06.242Z,99942
2018-05-09T18:00:35.154Z,99946
2018-05-09T18:03:03.437Z,99943
2018-05-09T18:05:31.624Z,99949
2018-05-09T18:07:59.843Z,99941
2018-05-09T18:10:28.029Z,99949
2018-05-09T18:12:56.173Z,99952
2018-05-09T18:15:24.316Z,99947
2018-05-09T18:17:52.474Z,99950
2018-05-09T18:20:20.656Z,99960
2018-05-09T18:22:48.832Z,99961
2018-05-09T18:25:16.952Z,99957
2018-05-09T18:27:45.086Z,99961
2018-05-09T18:30:13.262Z,99957
2018-05-09T18:32:41.396Z,99958
2018-05-09T18:35:09.580Z,99956
2018-05-09T18:37:37.764Z,99957
2018-05-09T18:40:05.930Z,99956
2018-05-09T18:42:34.290Z,99965
2018-05-09T18:45:02.441Z,99965
2018-05-09T18:47:31.360Z,99962
2018-05-09T18:49:59.474Z,99968
2018-05-09T18:52:27.644Z,99966
2018-05-09T18:54:55.783Z,99967
2018-05-09T18:57:23.922Z,99966
2018-05-09T18:59:52.857Z,99965
2018-05-09T19:02:21.034Z,99968
2018-05-09T19:04:49.344Z,99965
2018-05-09T19:07:17.509Z,99966
2018-05-09T19:09:45.797Z,99970
2018-05-09T19:12:13.992Z,99964
2018-05-09T19:14:42.364Z,99976
2018-05-09T19:17:11.526Z,99971
2018-05-09T19:19:39.709Z,99968
2018-05-09T19:22:07.925Z,99970
2018-05-09T19:24:36.056Z,99974
2018-05-09T19:27:04.188Z,99968
2018-05-09T19:29:33.119Z,99976
2018-05-09T19:32:01.262Z,99976
2018-05-09T19:34:29.454Z,99986
2018-05-09T19:36:57.684Z,99982
2018-05-09T19:39:25.892Z,99988
2018-05-09T19:41:54.021Z,99978
2018-05-09T19:44:22.199Z,99980
2018-05-09T19:46:50.378Z,99987
2018-05-09T19:49:18.684Z,99986
2018-05-09T19:51:46.886Z,99995
2018-05-09T19:54:15.060Z,99993
2018-05-09T19:56:43.230Z,99986
2018-05-09T19:59:12.164Z,99988
2018-05-09T20:01:40.313Z,99985
2018-05-09T20:04:09.232Z,99993
2018-05-09T20:06:37.349Z,99991
2018-05-09T20:09:05.478Z,99995
2018-05-09T20:11:33.730Z,99990
2018-05-09T20:14:02.644Z,99993
2018-05-09T20:16:30.787Z,99991
2018-05-09T20:18:59.722Z,99991
2018-05-09T20:21:28.736Z,99988
2018-05-09T20:23:56.910Z,99990
2018-05-09T20:26:25.056Z,99990
2018-05-09T20:28:58.834Z,99995
2018-05-09T20:31:50.423Z,99997
2018-05-09T20:34:18.549Z,100010
2018-05-09T20:36:46.695Z,100006
2018-05-09T20:39:14.850Z,100003
2018-05-09T20:41:43.760Z,100002
2018-05-09T20:44:11.940Z,100003
2018-05-09T20:46:40.102Z,100004
2018-05-09T20:49:09.036Z,100000
2018-05-09T20:51:50.884Z,100010
2018-05-09T20:54:19.026Z,100007
2018-05-09T20:56:47.192Z,100002
2018-05-09T20:59:15.356Z,99999
2018-05-09T21:01:48.795Z,100006
2018-05-09T21:04:17.708Z,100003
2018-05-09T21:06:45.853Z,100002
2018-05-09T21:09:14.866Z,100004
2018-05-09T21:12:00.897Z,100002
2018-05-09T21:14:29.119Z,100000
2018-05-09T21:16:57.226Z,99996
2018-05-09T21:19:25.366Z,99992
2018-05-09T21:21:54.269Z,99998
2018-05-09T21:24:22.434Z,99994
2018-05-09T21:26:50.562Z,99990
2018-05-09T21:29:18.697Z,99995
2018-05-09T21:31:46.876Z,100003
2018-05-09T21:34:15.037Z,100004
2018-05-09T21:36:43.188Z,100002
2018-05-09T21:39:11.323Z,100005
2018-05-09T21:41:39.458Z,99996
2018-05-09T21:44:07.622Z,99991
2018-05-09T21:46:35.812Z,99996
2018-05-09T21:49:03.962Z,99992
2018-05-09T21:51:32.196Z,99996
2018-05-09T21:54:00.356Z,99997
2018-05-09T21:56:28.487Z,99991
2018-05-09T21:58:56.615Z,99990
2018-05-09T22:01:24.774Z,99994
2018-05-09T22:03:52.924Z,99988
2018-05-09T22:06:21.076Z,99994
2018-05-09T22:08:49.853Z,99991
2018-05-09T22:11:18.010Z,99991
2018-05-09T22:13:46.203Z,99987
2018-05-09T22:16:14.324Z,99977
2018-05-09T22:18:42.612Z,99977
2018-05-09T22:21:11.134Z,99973
2018-05-09T22:23:39.302Z,99968
2018-05-09T22:26:07.456Z,99969
2018-05-09T22:28:36.346Z,99971
2018-05-09T22:31:05.259Z,99971
2018-05-09T22:33:33.387Z,99961
2018-05-09T22:36:01.541Z,99965
2018-05-09T22:38:29.700Z,99965
2018-05-09T22:40:57.837Z,99962
2018-05-09T22:43:26.755Z,99959
2018-05-09T22:45:54.873Z,99953
2018-05-09T22:48:23.014Z,99957
2018-05-09T22:50:51.244Z,99957
2018-05-09T22:53:19.408Z,99953
2018-05-09T22:55:47.546Z,99948
2018-05-09T22:58:15.784Z,99947
2018-05-09T23:00:43.985Z,99942
2018-05-09T23:03:12.121Z,99949
2018-05-09T23:05:40.252Z,99935
2018-05-09T23:08:08.397Z,99937
2018-05-09T23:10:36.534Z,99925
2018-05-09T23:13:04.673Z,99937
2018-05-09T23:15:32.837Z,99937
2018-05-09T23:18:01.011Z,99936
2018-05-09T23:20:29.145Z,99935
2018-05-09T23:22:57.281Z,99930
2018-05-09T23:25:26.190Z,99929
2018-05-09T23:27:54.352Z,99931
2018-05-09T23:30:23.264Z,99924
2018-05-09T23:32:51.448Z,99922
2018-05-09T23:35:19.574Z,99920
2018-05-09T23:37:48.534Z,99935
2018-05-09T23:40:16.695Z,99935
2018-05-09T23:42:44.844Z,99923
2018-05-09T23:45:12.994Z,99930
2018-05-09T23:47:41.914Z,99921
2018-05-09T23:50:10.113Z,99917
2018-05-09T23:52:38.285Z,99923
2018-05-09T23:55:06.423Z,99925
2018-05-09T23:57:34.553Z,99916
